Time;durP1;ratioP1;P1;durP2;ratioP2;P2;SDS_P1;SDS_P2;PMS_P1;PMS_P2;Temp;Humidity;BMP_temperature;BMP_pressure;BME280_temperature;BME280_humidity;BME280_pressure;Samples;Min_cycle;Max_cycle;Signal;HPM_P1;HPM_P2
2023/03/18 00:00:08;;;;;;;3.00;2.30;;;11.00;1.00;;;;;;5028970;28;20205;-83
2023/03/18 00:02:35;;;;;;;4.67;2.57;;;11.00;1.00;;;;;;5029016;28;20227;-83
2023/03/18 00:05:02;;;;;;;4.20;2.40;;;11.00;99.90;;;;;;5027575;28;20276;-85
2023/03/18 00:07:29;;;;;;;5.23;3.07;;;11.10;1.00;;;;;;5025941;28;20661;-84
2023/03/18 00:09:56;;;;;;;3.50;2.10;;;11.30;99.90;;;;;;5026690;28;20184;-84
2023/03/18 00:12:23;;;;;;;6.07;2.90;;;11.30;1.00;;;;;;5027262;28;20251;-84
2023/03/18 00:14:50;;;;;;;4.73;2.77;;;11.40;1.00;;;;;;5027877;28;20270;-83
2023/03/18 00:17:19;;;;;;;3.77;2.70;;;11.40;1.00;;;;;;5009572;28;20287;-83
2023/03/18 00:19:46;;;;;;;4.00;2.40;;;11.40;1.00;;;;;;5005772;28;20225;-84
2023/03/18 00:22:13;;;;;;;4.93;2.20;;;11.30;99.90;;;;;;5025271;28;20303;-84
2023/03/18 00:24:40;;;;;;;6.53;2.53;;;11.60;1.00;;;;;;5021579;28;20213;-84
2023/03/18 00:27:08;;;;;;;5.13;2.30;;;11.60;1.00;;;;;;5026081;28;20229;-83
2023/03/18 00:29:35;;;;;;;3.67;2.40;;;11.50;1.00;;;;;;5025633;28;20298;-84
2023/03/18 00:32:02;;;;;;;4.80;2.50;;;11.40;1.00;;;;;;5026535;28;20224;-84
2023/03/18 00:34:30;;;;;;;3.87;2.50;;;11.40;99.90;;;;;;5024820;28;20664;-83
2023/03/18 00:36:57;;;;;;;3.13;2.53;;;11.40;99.90;;;;;;5020973;28;20236;-83
2023/03/18 00:39:25;;;;;;;5.97;2.57;;;11.40;1.00;;;;;;5026914;28;20897;-83
2023/03/18 00:41:52;;;;;;;4.07;2.53;;;11.40;99.90;;;;;;5014412;28;20232;-83
2023/03/18 00:44:19;;;;;;;4.90;2.47;;;11.40;1.00;;;;;;5024315;28;20201;-83
2023/03/18 00:46:46;;;;;;;2.73;2.50;;;11.30;1.00;;;;;;5023348;28;20217;-84
2023/03/18 00:49:14;;;;;;;4.30;2.23;;;11.40;99.90;;;;;;5013698;28;20193;-84
2023/03/18 00:51:42;;;;;;;4.40;2.60;;;11.30;1.00;;;;;;5026468;28;20744;-85
2023/03/18 00:54:12;;;;;;;3.23;2.30;;;11.30;1.00;;;;;;5025174;28;20207;-85
2023/03/18 00:56:40;;;;;;;3.43;2.40;;;11.40;1.00;;;;;;5027460;28;20216;-85
2023/03/18 00:59:08;;;;;;;4.70;2.57;;;11.40;1.00;;;;;;5027311;28;20224;-84
2023/03/18 01:01:35;;;;;;;5.60;2.73;;;11.40;26.00;;;;;;5025565;28;20830;-83
2023/03/18 01:04:03;;;;;;;4.07;2.33;;;11.20;1.00;;;;;;5026302;28;20218;-83
2023/03/18 01:06:32;;;;;;;4.23;2.33;;;11.20;1.00;;;;;;5024953;28;20220;-83
2023/03/18 01:09:03;;;;;;;5.43;2.60;;;11.20;1.00;;;;;;5024984;28;20673;-83
2023/03/18 01:11:30;;;;;;;3.80;2.43;;;11.20;1.00;;;;;;5026401;28;20228;-83
2023/03/18 01:13:58;;;;;;;5.97;2.80;;;11.30;1.00;;;;;;5025816;28;20200;-84
2023/03/18 01:16:24;;;;;;;4.67;2.73;;;11.30;1.00;;;;;;5024565;28;20263;-83
2023/03/18 01:18:52;;;;;;;4.67;2.40;;;11.30;1.00;;;;;;5026512;28;20230;-83
2023/03/18 01:21:19;;;;;;;4.87;2.53;;;11.20;1.00;;;;;;5024957;28;20732;-83
2023/03/18 01:23:46;;;;;;;4.37;2.20;;;11.10;99.90;;;;;;5007269;28;20291;-84
2023/03/18 01:26:15;;;;;;;3.90;2.73;;;11.20;99.90;;;;;;5006556;28;20763;-83
2023/03/18 01:28:42;;;;;;;4.97;2.40;;;11.20;1.00;;;;;;5023286;28;20254;-83
2023/03/18 01:31:09;;;;;;;3.53;2.70;;;11.10;1.00;;;;;;5026843;28;20225;-84
2023/03/18 01:33:36;;;;;;;4.67;2.57;;;11.00;1.00;;;;;;5025621;28;20208;-84
2023/03/18 01:36:05;;;;;;;3.87;2.70;;;10.90;99.90;;;;;;5027216;28;20737;-84
2023/03/18 01:38:32;;;;;;;2.80;2.33;;;10.80;99.90;;;;;;5023871;28;20227;-83
2023/03/18 01:41:00;;;;;;;5.10;2.53;;;10.70;1.00;;;;;;5021550;28;20235;-84
2023/03/18 01:43:30;;;;;;;6.53;3.33;;;10.70;1.00;;;;;;5005268;28;20211;-85
2023/03/18 01:45:59;;;;;;;5.07;2.93;;;10.70;1.00;;;;;;5021508;28;20216;-85
2023/03/18 01:48:28;;;;;;;4.67;3.03;;;10.60;1.00;;;;;;5007681;28;20876;-84
2023/03/18 01:50:58;;;;;;;4.43;2.80;;;10.60;33.40;;;;;;5011451;28;20205;-83
2023/03/18 01:53:28;;;;;;;3.53;2.90;;;10.60;99.90;;;;;;5007712;28;20193;-83
2023/03/18 01:55:56;;;;;;;6.17;2.93;;;10.60;99.90;;;;;;5013565;28;20270;-83
2023/03/18 01:58:27;;;;;;;6.73;3.07;;;10.60;99.90;;;;;;5037688;28;20222;-83
2023/03/18 02:01:00;;;;;;;3.57;2.70;;;10.60;99.90;;;;;;5035913;28;20223;-84
2023/03/18 02:03:28;;;;;;;5.90;2.90;;;10.80;56.60;;;;;;5006255;28;20301;-83
2023/03/18 02:05:55;;;;;;;4.23;2.67;;;10.70;99.90;;;;;;5015507;28;20240;-84
2023/03/18 02:08:22;;;;;;;5.93;3.33;;;10.70;99.90;;;;;;5030553;28;20722;-83
2023/03/18 02:10:50;;;;;;;4.63;2.77;;;10.60;99.90;;;;;;5031932;28;20657;-83
2023/03/18 02:13:18;;;;;;;3.40;2.77;;;10.80;99.90;;;;;;5032859;28;20203;-84
2023/03/18 02:15:51;;;;;;;4.37;2.70;;;10.70;99.90;;;;;;5031538;28;20620;-84
2023/03/18 02:18:23;;;;;;;7.67;3.47;;;10.70;99.90;;;;;;5032439;28;20311;-83
2023/03/18 02:21:28;;;;;;;8.00;3.00;;;10.80;99.90;;;;;;5032369;28;20744;-82
2023/03/18 02:24:03;;;;;;;6.80;2.80;;;11.00;35.90;;;;;;5032458;28;20214;-83
2023/03/18 02:26:37;;;;;;;6.50;2.87;;;11.10;1.00;;;;;;5030109;28;20297;-83
2023/03/18 02:29:07;;;;;;;9.10;3.40;;;11.20;1.00;;;;;;5032669;28;20695;-84
2023/03/18 02:31:36;;;;;;;5.30;2.93;;;11.10;1.00;;;;;;5033320;28;20223;-83
2023/03/18 02:34:06;;;;;;;4.53;2.70;;;11.10;1.00;;;;;;5030009;28;20224;-83
2023/03/18 02:36:35;;;;;;;6.10;2.77;;;11.10;1.00;;;;;;5032731;28;20699;-83
2023/03/18 02:39:03;;;;;;;4.23;2.50;;;11.00;1.00;;;;;;5031564;28;20219;-83
2023/03/18 02:41:32;;;;;;;4.23;2.87;;;11.10;1.00;;;;;;5032232;28;20258;-83
2023/03/18 02:43:59;;;;;;;8.17;2.93;;;11.00;1.00;;;;;;5032812;28;20208;-84
2023/03/18 02:46:35;;;;;;;3.63;2.53;;;11.00;1.00;;;;;;5031711;28;20214;-83
2023/03/18 02:49:05;;;;;;;5.47;3.07;;;11.00;99.90;;;;;;5022497;28;20202;-84
2023/03/18 02:51:32;;;;;;;6.43;3.13;;;10.90;99.90;;;;;;5013362;28;20228;-84
2023/03/18 02:54:02;;;;;;;4.73;3.10;;;10.80;99.90;;;;;;5032478;28;20216;-83
2023/03/18 02:56:29;;;;;;;10.27;4.33;;;10.90;99.90;;;;;;5032489;28;20264;-84
2023/03/18 02:58:56;;;;;;;6.50;3.30;;;10.90;99.90;;;;;;5031320;28;20264;-83
2023/03/18 03:01:24;;;;;;;7.10;3.60;;;10.80;99.90;;;;;;5012493;28;20267;-83
2023/03/18 03:03:52;;;;;;;8.47;3.27;;;10.70;99.90;;;;;;5032614;28;20204;-85
2023/03/18 03:06:19;;;;;;;5.77;3.37;;;10.70;99.90;;;;;;5013906;28;20577;-84
2023/03/18 03:08:46;;;;;;;7.53;3.87;;;10.60;99.90;;;;;;5030657;28;20200;-84
2023/03/18 03:11:13;;;;;;;8.90;4.47;;;10.70;99.90;;;;;;5032373;28;20228;-83
2023/03/18 03:13:41;;;;;;;5.67;3.73;;;10.60;99.90;;;;;;5020032;28;20213;-83
2023/03/18 03:16:09;;;;;;;9.07;4.13;;;10.50;99.90;;;;;;5015446;28;20583;-85
2023/03/18 03:18:36;;;;;;;6.97;3.63;;;10.40;99.90;;;;;;5019699;28;20217;-83
2023/03/18 03:21:05;;;;;;;7.57;4.17;;;10.40;99.90;;;;;;5031742;28;20231;-83
2023/03/18 03:23:32;;;;;;;8.40;4.10;;;10.40;99.90;;;;;;5042624;28;20603;-83
2023/03/18 03:25:59;;;;;;;8.87;4.37;;;10.30;99.90;;;;;;5027127;28;20740;-83
2023/03/18 03:28:26;;;;;;;9.80;4.20;;;10.30;99.90;;;;;;5027024;28;20217;-83
2023/03/18 03:30:54;;;;;;;10.23;4.97;;;10.30;99.90;;;;;;5027036;28;20200;-85
2023/03/18 03:33:22;;;;;;;7.80;4.47;;;10.20;99.90;;;;;;5008556;28;20215;-84
2023/03/18 03:35:49;;;;;;;7.20;4.20;;;10.20;99.90;;;;;;5006068;28;20209;-83
2023/03/18 03:38:17;;;;;;;6.30;4.07;;;10.20;99.90;;;;;;5008082;28;20228;-83
2023/03/18 03:40:45;;;;;;;7.23;4.47;;;10.10;99.90;;;;;;5027199;28;20228;-83
2023/03/18 03:43:13;;;;;;;9.20;4.43;;;10.00;99.90;;;;;;5018896;28;20295;-84
2023/03/18 03:45:40;;;;;;;9.03;4.40;;;9.80;99.90;;;;;;5021116;28;20205;-83
2023/03/18 03:48:08;;;;;;;7.83;4.53;;;9.80;99.90;;;;;;5013427;28;20212;-84
2023/03/18 03:50:35;;;;;;;10.60;4.67;;;9.70;99.90;;;;;;5006755;28;20208;-83
2023/03/18 03:53:04;;;;;;;10.57;5.10;;;9.70;99.90;;;;;;5012342;28;20216;-85
2023/03/18 03:55:32;;;;;;;7.53;4.23;;;9.70;99.90;;;;;;5036017;28;20220;-85
2023/03/18 03:57:59;;;;;;;9.73;4.60;;;9.60;99.90;;;;;;5018456;28;20534;-83
2023/03/18 04:00:26;;;;;;;9.67;4.57;;;9.60;99.90;;;;;;5009531;28;20204;-84
2023/03/18 04:02:54;;;;;;;9.87;5.00;;;9.40;99.90;;;;;;5025896;28;20224;-83
2023/03/18 04:05:24;;;;;;;9.80;4.93;;;9.50;99.90;;;;;;5026136;28;20201;-83
2023/03/18 04:07:52;;;;;;;9.20;5.20;;;9.50;99.90;;;;;;5020303;28;20217;-84
2023/03/18 04:10:20;;;;;;;9.90;5.00;;;9.60;99.90;;;;;;5007812;28;20207;-83
2023/03/18 04:12:50;;;;;;;8.47;5.30;;;9.50;99.90;;;;;;5022751;28;20269;-82
2023/03/18 04:15:18;;;;;;;8.20;4.83;;;9.60;99.90;;;;;;5019398;28;20209;-83
2023/03/18 04:17:46;;;;;;;9.23;5.07;;;9.60;99.90;;;;;;5014461;28;20222;-84
2023/03/18 04:20:13;;;;;;;9.30;5.50;;;9.50;99.90;;;;;;5025612;28;20224;-83
2023/03/18 04:22:40;;;;;;;6.77;4.97;;;9.50;99.90;;;;;;5027434;28;20557;-85
2023/03/18 04:25:09;;;;;;;8.77;4.93;;;9.50;99.90;;;;;;5023315;28;20646;-83
2023/03/18 04:27:36;;;;;;;9.20;5.00;;;9.40;99.90;;;;;;5021277;28;20676;-84
2023/03/18 04:30:05;;;;;;;8.70;5.00;;;9.40;99.90;;;;;;5004840;28;20204;-84
2023/03/18 04:32:32;;;;;;;10.40;5.73;;;9.40;99.90;;;;;;5017939;28;20227;-83
2023/03/18 04:34:59;;;;;;;9.67;5.40;;;9.40;99.90;;;;;;5026266;28;20232;-85
2023/03/18 04:37:26;;;;;;;9.37;5.00;;;9.40;99.90;;;;;;5008738;28;20201;-84
2023/03/18 04:39:52;;;;;;;8.90;5.10;;;9.40;99.90;;;;;;5005574;28;20482;-83
2023/03/18 04:42:19;;;;;;;11.07;5.67;;;9.30;99.90;;;;;;5021016;28;20236;-83
2023/03/18 04:44:46;;;;;;;8.17;5.17;;;9.40;99.90;;;;;;5007106;28;20217;-83
2023/03/18 04:47:14;;;;;;;7.37;4.80;;;9.40;99.90;;;;;;5009674;28;20212;-84
2023/03/18 04:49:41;;;;;;;8.20;5.27;;;9.30;99.90;;;;;;5019736;28;20209;-84
2023/03/18 04:52:08;;;;;;;9.70;5.77;;;9.30;99.90;;;;;;5005009;28;20289;-83
2023/03/18 04:54:36;;;;;;;8.27;5.17;;;9.30;99.90;;;;;;5004339;28;20205;-83
2023/03/18 04:57:04;;;;;;;8.93;5.27;;;9.30;99.90;;;;;;5011410;28;20212;-84
2023/03/18 04:59:31;;;;;;;8.43;5.20;;;9.00;99.90;;;;;;5024886;28;20212;-83
2023/03/18 05:01:58;;;;;;;9.97;5.23;;;8.80;99.90;;;;;;5023818;28;20605;-84
2023/03/18 05:04:27;;;;;;;9.47;5.43;;;8.40;99.90;;;;;;5025254;28;20663;-82
2023/03/18 05:06:53;;;;;;;9.73;5.50;;;8.30;99.90;;;;;;5019934;28;20208;-82
2023/03/18 05:09:20;;;;;;;8.53;5.30;;;8.30;99.90;;;;;;5005953;28;20273;-84
2023/03/18 05:11:47;;;;;;;9.57;4.77;;;8.20;99.90;;;;;;5013809;28;20228;-83
2023/03/18 05:14:14;;;;;;;10.57;5.20;;;8.20;99.90;;;;;;5024893;28;20299;-83
2023/03/18 05:16:42;;;;;;;10.23;5.73;;;8.10;99.90;;;;;;5039971;28;20680;-84
2023/03/18 05:19:09;;;;;;;12.37;6.03;;;8.00;99.90;;;;;;5044560;28;20302;-83
2023/03/18 05:21:38;;;;;;;10.63;5.53;;;8.10;99.90;;;;;;5026273;28;20270;-82
2023/03/18 05:24:05;;;;;;;22.57;12.27;;;8.30;99.90;;;;;;5025375;28;20262;-82
2023/03/18 05:26:32;;;;;;;12.13;6.77;;;8.20;99.90;;;;;;5026714;28;20633;-82
2023/03/18 05:28:59;;;;;;;14.00;6.60;;;8.40;99.90;;;;;;5025081;28;20264;-83
2023/03/18 05:31:26;;;;;;;11.90;5.90;;;8.30;99.90;;;;;;5024047;28;20235;-84
2023/03/18 05:33:53;;;;;;;12.80;6.70;;;8.40;99.90;;;;;;5025298;28;20220;-82
2023/03/18 05:36:20;;;;;;;8.67;5.90;;;8.50;99.90;;;;;;5021442;28;20232;-85
2023/03/18 05:38:48;;;;;;;9.57;5.80;;;8.40;99.90;;;;;;5020911;28;20215;-83
2023/03/18 05:41:15;;;;;;;9.00;5.67;;;8.30;99.90;;;;;;5020465;28;20263;-82
2023/03/18 05:43:42;;;;;;;9.57;5.10;;;8.20;99.90;;;;;;5026459;28;20214;-82
2023/03/18 05:46:09;;;;;;;8.00;5.30;;;8.20;99.90;;;;;;5019655;28;20295;-81
2023/03/18 05:48:36;;;;;;;8.37;4.80;;;8.30;99.90;;;;;;5022258;28;20218;-82
2023/03/18 05:51:04;;;;;;;11.83;5.27;;;8.20;99.90;;;;;;5023676;28;20909;-83
2023/03/18 05:53:31;;;;;;;7.83;5.57;;;8.20;99.90;;;;;;5029620;28;20216;-84
2023/03/18 05:55:59;;;;;;;10.93;4.77;;;8.30;99.90;;;;;;5019703;28;20201;-83
2023/03/18 05:58:29;;;;;;;10.13;5.00;;;8.20;99.90;;;;;;5022988;28;20287;-82
2023/03/18 06:00:57;;;;;;;9.97;5.20;;;8.30;99.90;;;;;;5025608;28;20287;-82
2023/03/18 06:03:24;;;;;;;10.03;4.60;;;8.30;99.90;;;;;;5024986;28;20215;-82
2023/03/18 06:05:52;;;;;;;8.83;4.77;;;8.30;99.90;;;;;;5018358;28;20271;-81
2023/03/18 06:08:19;;;;;;;11.57;5.00;;;8.10;99.90;;;;;;5026000;28;20212;-82
2023/03/18 06:10:47;;;;;;;9.57;4.87;;;8.30;99.90;;;;;;5031415;28;20200;-84
2023/03/18 06:13:15;;;;;;;9.00;5.57;;;8.20;99.90;;;;;;5022985;28;20267;-86
2023/03/18 06:15:42;;;;;;;8.97;5.07;;;8.10;99.90;;;;;;5032635;28;20203;-85
2023/03/18 06:18:08;;;;;;;11.73;6.33;;;8.00;99.90;;;;;;5027850;28;20217;-84
2023/03/18 06:20:35;;;;;;;7.77;4.83;;;8.10;99.90;;;;;;5025200;28;20626;-82
2023/03/18 06:23:04;;;;;;;7.17;4.63;;;7.90;99.90;;;;;;5022576;28;20244;-81
2023/03/18 06:25:31;;;;;;;8.50;4.70;;;8.20;99.90;;;;;;5023297;28;20208;-83
2023/03/18 06:27:57;;;;;;;6.10;4.37;;;8.30;99.90;;;;;;5018885;28;20206;-80
2023/03/18 06:30:26;;;;;;;9.03;4.60;;;8.30;99.90;;;;;;5027875;28;20201;-81
2023/03/18 06:32:53;;;;;;;7.23;4.53;;;8.20;99.90;;;;;;5023220;28;20230;-81
2023/03/18 06:35:20;;;;;;;9.43;4.97;;;8.40;99.90;;;;;;5024851;28;20264;-80
2023/03/18 06:37:47;;;;;;;7.07;4.57;;;8.10;99.90;;;;;;5023397;28;20209;-82
2023/03/18 06:40:14;;;;;;;7.80;5.20;;;8.30;99.90;;;;;;5020386;28;20216;-84
2023/03/18 06:42:41;;;;;;;8.00;4.90;;;8.50;99.90;;;;;;5017995;28;20227;-84
2023/03/18 06:45:09;;;;;;;22.10;12.57;;;8.40;99.90;;;;;;5018963;28;20204;-80
2023/03/18 06:47:38;;;;;;;13.00;7.10;;;8.60;99.90;;;;;;5025193;28;20243;-82
2023/03/18 06:50:05;;;;;;;12.47;5.90;;;8.70;99.90;;;;;;5022274;28;20207;-81
2023/03/18 06:52:32;;;;;;;10.00;5.83;;;8.90;99.90;;;;;;5027518;28;20224;-81
2023/03/18 06:54:59;;;;;;;8.37;4.80;;;9.00;99.90;;;;;;5035466;28;20204;-80
2023/03/18 06:57:26;;;;;;;9.17;4.33;;;9.00;99.90;;;;;;5021881;28;20271;-83
2023/03/18 06:59:53;;;;;;;6.70;4.43;;;9.20;99.90;;;;;;5030973;28;20205;-82
2023/03/18 07:02:22;;;;;;;9.87;6.33;;;9.20;99.90;;;;;;5017617;28;20651;-82
2023/03/18 07:04:51;;;;;;;9.27;4.97;;;9.30;99.90;;;;;;5037701;28;20204;-84
2023/03/18 07:07:18;;;;;;;10.60;4.73;;;9.60;99.90;;;;;;5030666;28;20243;-81
2023/03/18 07:09:45;;;;;;;8.23;4.80;;;9.80;99.90;;;;;;5025250;28;20261;-85
2023/03/18 07:12:13;;;;;;;6.93;4.80;;;9.70;99.90;;;;;;5027508;28;20239;-86
2023/03/18 07:14:40;;;;;;;8.43;4.70;;;10.20;99.90;;;;;;5030326;28;20197;-82
2023/03/18 07:17:07;;;;;;;8.63;4.90;;;10.90;99.90;;;;;;5020009;28;20208;-86
2023/03/18 07:19:34;;;;;;;8.30;4.27;;;11.20;99.90;;;;;;5023614;28;20212;-84
2023/03/18 07:22:03;;;;;;;5.47;3.60;;;11.20;99.90;;;;;;5035195;28;20283;-84
2023/03/18 07:24:30;;;;;;;6.87;4.03;;;11.30;99.90;;;;;;5021326;28;20212;-83
2023/03/18 07:26:57;;;;;;;9.23;3.93;;;11.30;99.90;;;;;;5032987;28;20298;-83
2023/03/18 07:29:24;;;;;;;9.43;4.00;;;11.60;99.90;;;;;;5027116;28;20212;-83
2023/03/18 07:31:51;;;;;;;6.00;3.23;;;11.80;99.90;;;;;;5034236;28;20216;-83
2023/03/18 07:34:20;;;;;;;7.07;4.20;;;12.10;99.90;;;;;;5024204;28;20299;-85
2023/03/18 07:36:47;;;;;;;8.00;3.10;;;12.50;99.90;;;;;;5035543;28;20212;-82
2023/03/18 07:39:15;;;;;;;5.17;2.90;;;12.90;99.90;;;;;;5023192;28;20228;-81
2023/03/18 07:41:41;;;;;;;7.67;3.33;;;13.30;99.90;;;;;;5035658;28;20755;-82
2023/03/18 07:44:08;;;;;;;7.17;3.80;;;13.60;99.90;;;;;;5035274;28;20215;-85
2023/03/18 07:46:35;;;;;;;5.77;3.50;;;13.80;99.90;;;;;;5030481;28;20209;-84
2023/03/18 07:49:02;;;;;;;7.80;3.73;;;13.80;99.90;;;;;;5025979;28;20212;-83
2023/03/18 07:51:29;;;;;;;6.67;3.23;;;14.10;99.90;;;;;;5033473;28;20246;-83
2023/03/18 07:53:56;;;;;;;4.67;3.40;;;13.20;99.90;;;;;;5027887;28;20223;-82
2023/03/18 07:56:25;;;;;;;7.20;3.37;;;13.10;99.90;;;;;;5025065;28;20239;-85
2023/03/18 07:58:52;;;;;;;5.83;3.70;;;13.20;99.90;;;;;;5028929;28;20200;-82
2023/03/18 08:01:19;;;;;;;5.63;3.57;;;12.90;99.90;;;;;;5026314;28;20228;-86
2023/03/18 08:03:46;;;;;;;6.83;3.57;;;13.00;99.90;;;;;;5025885;28;20625;-82
2023/03/18 08:06:14;;;;;;;5.97;3.50;;;12.90;99.90;;;;;;5021910;28;20206;-84
2023/03/18 08:08:42;;;;;;;7.93;3.60;;;12.80;99.90;;;;;;5028417;28;20210;-83
2023/03/18 08:11:09;;;;;;;5.87;3.30;;;12.70;99.90;;;;;;5035963;28;20228;-82
2023/03/18 08:13:38;;;;;;;5.03;3.27;;;12.70;99.90;;;;;;5023287;28;20208;-84
2023/03/18 08:16:05;;;;;;;7.10;3.80;;;12.70;99.90;;;;;;5027059;28;20213;-82
2023/03/18 08:18:32;;;;;;;5.33;3.10;;;13.00;99.90;;;;;;5030098;28;20215;-85
2023/03/18 08:20:59;;;;;;;7.93;3.90;;;13.50;99.90;;;;;;5028035;28;20200;-83
2023/03/18 08:23:26;;;;;;;6.20;3.50;;;13.50;99.90;;;;;;5033009;28;20225;-84
2023/03/18 08:25:53;;;;;;;6.37;3.40;;;13.50;99.90;;;;;;5027239;28;20231;-82
2023/03/18 08:28:20;;;;;;;7.20;3.80;;;14.10;99.90;;;;;;5028638;28;20552;-84
2023/03/18 08:30:48;;;;;;;5.60;3.40;;;14.40;99.90;;;;;;5023444;28;20268;-83
2023/03/18 08:33:15;;;;;;;5.33;3.40;;;14.00;99.90;;;;;;5022380;28;20268;-81
2023/03/18 08:35:42;;;;;;;6.70;3.30;;;14.20;99.90;;;;;;5020364;28;20208;-82
2023/03/18 08:38:09;;;;;;;3.73;3.30;;;14.40;99.90;;;;;;5024931;28;20212;-83
2023/03/18 08:40:36;;;;;;;7.67;4.53;;;14.50;99.90;;;;;;5022405;28;20231;-83
2023/03/18 08:43:03;;;;;;;6.10;3.83;;;14.30;99.90;;;;;;5030783;28;20318;-81
2023/03/18 08:45:30;;;;;;;5.83;3.57;;;14.30;99.90;;;;;;5032229;28;20208;-83
2023/03/18 08:47:58;;;;;;;5.50;3.50;;;14.50;99.90;;;;;;5025684;28;21707;-82
2023/03/18 08:50:27;;;;;;;4.43;3.17;;;14.50;99.90;;;;;;5030492;28;20244;-82
2023/03/18 08:52:56;;;;;;;5.47;3.35;;;14.50;99.90;;;;;;5024183;28;20225;-82
2023/03/18 08:55:24;;;;;;;6.10;3.67;;;14.50;99.90;;;;;;5023295;28;20201;-81
2023/03/18 08:57:52;;;;;;;4.85;3.20;;;14.30;99.90;;;;;;5031917;28;20204;-84
2023/03/18 09:00:20;;;;;;;4.85;3.60;;;14.00;99.90;;;;;;5028825;28;20283;-85
2023/03/18 09:02:47;;;;;;;7.07;3.37;;;14.00;99.90;;;;;;5025836;28;20291;-81
2023/03/18 09:05:15;;;;;;;4.47;3.67;;;14.20;99.90;;;;;;5035891;28;20211;-82
2023/03/18 09:07:42;;;;;;;6.37;3.33;;;14.50;99.90;;;;;;5026792;28;20301;-83
2023/03/18 09:10:11;;;;;;;4.53;3.33;;;14.60;99.90;;;;;;5029086;28;20244;-83
2023/03/18 09:12:38;;;;;;;6.72;4.18;;;14.90;99.90;;;;;;5019542;28;20224;-80
2023/03/18 09:15:07;;;;;;;8.25;4.10;;;14.80;99.90;;;;;;5025922;28;20214;-84
2023/03/18 09:17:36;;;;;;;4.10;3.65;;;14.60;99.90;;;;;;5018446;28;20303;-82
2023/03/18 09:20:03;;;;;;;4.05;3.55;;;14.70;99.90;;;;;;5020181;28;20209;-81
2023/03/18 09:22:31;;;;;;;6.50;4.15;;;14.80;99.90;;;;;;5023123;28;20299;-83
2023/03/18 09:24:58;;;;;;;5.82;3.53;;;14.80;99.90;;;;;;5025961;28;20203;-84
2023/03/18 09:27:25;;;;;;;6.68;4.38;;;14.70;99.90;;;;;;5027017;28;20208;-82
2023/03/18 09:29:52;;;;;;;8.52;3.88;;;15.00;99.90;;;;;;5021372;28;20228;-85
2023/03/18 09:32:19;;;;;;;4.43;4.03;;;15.20;99.90;;;;;;5021242;28;20232;-86
2023/03/18 09:34:46;;;;;;;8.35;4.15;;;15.50;99.90;;;;;;5023981;28;20703;-83
2023/03/18 09:37:13;;;;;;;5.63;4.32;;;16.10;99.90;;;;;;5026217;28;20216;-85
2023/03/18 09:39:42;;;;;;;5.78;4.25;;;16.30;99.90;;;;;;5021879;28;20208;-81
2023/03/18 09:42:31;;;;;;;5.13;3.70;;;15.90;99.90;;;;;;5034048;28;20712;-85
2023/03/18 09:45:01;;;;;;;6.60;4.38;;;16.10;99.90;;;;;;5028663;28;20227;-80
2023/03/18 09:47:46;;;;;;;6.45;4.05;;;16.30;99.90;;;;;;5031857;28;20235;-83
2023/03/18 09:50:26;;;;;;;6.93;4.10;;;16.50;99.90;;;;;;5033948;28;20234;-83
2023/03/18 09:53:05;;;;;;;7.13;4.18;;;17.00;99.90;;;;;;5023780;28;20236;-81
2023/03/18 09:55:40;;;;;;;6.40;3.70;;;16.90;99.90;;;;;;5027653;28;20219;-85
2023/03/18 09:58:22;;;;;;;6.63;4.00;;;17.10;99.90;;;;;;5017699;28;20243;-85
2023/03/18 10:00:53;;;;;;;6.68;4.00;;;16.70;99.90;;;;;;5031410;28;20204;-80
2023/03/18 10:03:27;;;;;;;7.30;4.13;;;16.40;99.90;;;;;;5023238;28;20235;-85
2023/03/18 10:05:59;;;;;;;6.32;4.00;;;16.50;99.90;;;;;;5022131;28;20208;-83
2023/03/18 10:08:40;;;;;;;8.77;4.30;;;16.80;99.90;;;;;;5010672;28;20938;-84
2023/03/18 10:11:17;;;;;;;6.10;3.97;;;17.10;99.90;;;;;;5018312;28;20702;-82
2023/03/18 10:13:52;;;;;;;5.82;3.63;;;17.30;99.90;;;;;;5032725;28;20263;-83
2023/03/18 10:16:24;;;;;;;6.93;3.10;;;17.20;99.90;;;;;;5005961;28;20304;-83
2023/03/18 10:18:51;;;;;;;7.35;3.88;;;16.70;99.90;;;;;;5006270;28;20267;-80
2023/03/18 10:21:26;;;;;;;3.97;3.33;;;16.20;99.90;;;;;;5024983;28;20237;-80
2023/03/18 10:24:05;;;;;;;5.72;3.55;;;16.00;99.90;;;;;;5018593;28;20247;-81
2023/03/18 10:26:41;;;;;;;6.15;3.60;;;15.80;99.90;;;;;;5026629;28;20691;-83
2023/03/18 10:29:21;;;;;;;5.32;3.78;;;15.80;99.90;;;;;;5030517;28;20209;-82
2023/03/18 10:32:00;;;;;;;6.18;3.40;;;15.70;99.90;;;;;;5034227;28;20403;-82
2023/03/18 10:34:32;;;;;;;6.53;3.45;;;15.60;99.90;;;;;;5024400;28;20220;-82
2023/03/18 10:37:06;;;;;;;5.05;3.40;;;15.60;99.90;;;;;;5025009;28;20275;-82
2023/03/18 10:39:35;;;;;;;5.47;3.45;;;15.60;99.90;;;;;;5028168;28;20299;-82
2023/03/18 10:42:22;;;;;;;5.30;3.63;;;15.60;99.90;;;;;;5034301;28;20298;-82
2023/03/18 10:44:51;;;;;;;4.03;3.38;;;15.80;99.90;;;;;;5022451;28;20272;-80
2023/03/18 10:47:22;;;;;;;7.45;3.50;;;16.40;99.90;;;;;;5031030;28;20290;-82
2023/03/18 10:50:01;;;;;;;5.72;3.78;;;17.10;99.90;;;;;;5031239;28;20295;-81
2023/03/18 10:52:34;;;;;;;4.68;3.60;;;17.10;99.90;;;;;;5027855;28;20222;-81
2023/03/18 10:55:01;;;;;;;5.53;3.30;;;17.40;99.90;;;;;;5022729;28;20208;-83
2023/03/18 10:57:29;;;;;;;3.33;2.60;;;17.90;99.90;;;;;;5019127;28;20203;-83
2023/03/18 10:59:56;;;;;;;3.03;2.70;;;18.20;99.90;;;;;;5011126;28;20209;-82
2023/03/18 11:02:29;;;;;;;3.55;2.70;;;18.00;99.90;;;;;;5025768;28;20314;-86
2023/03/18 11:05:01;;;;;;;4.68;2.65;;;17.80;99.90;;;;;;5047392;28;20196;-83
2023/03/18 11:07:28;;;;;;;5.72;3.13;;;17.60;99.90;;;;;;5033817;28;20567;-80
2023/03/18 11:10:10;;;;;;;2.55;2.33;;;17.50;99.90;;;;;;5009444;28;20205;-81
2023/03/18 11:12:38;;;;;;;3.97;2.67;;;17.90;99.90;;;;;;5013778;28;20229;-80
2023/03/18 11:15:10;;;;;;;3.50;2.70;;;18.10;99.90;;;;;;5008181;28;20304;-82
2023/03/18 11:17:39;;;;;;;6.20;3.20;;;18.20;99.90;;;;;;5019658;28;20223;-81
2023/03/18 11:20:19;;;;;;;5.13;2.78;;;18.30;99.90;;;;;;5029817;28;20212;-82
2023/03/18 11:22:50;;;;;;;2.60;2.38;;;18.20;99.90;;;;;;5028004;28;20587;-84
2023/03/18 11:25:22;;;;;;;4.95;3.05;;;18.40;99.90;;;;;;5027655;28;20212;-80
2023/03/18 11:27:51;;;;;;;3.08;2.78;;;18.20;99.90;;;;;;5026808;28;20222;-84
2023/03/18 11:30:21;;;;;;;4.38;3.15;;;18.10;99.90;;;;;;5030116;28;20212;-83
2023/03/18 11:32:53;;;;;;;5.28;2.85;;;18.00;99.90;;;;;;5029190;28;20266;-81
2023/03/18 11:35:21;;;;;;;5.35;3.17;;;18.00;99.90;;;;;;5029113;28;20260;-79
2023/03/18 11:37:49;;;;;;;4.63;2.92;;;17.70;99.90;;;;;;5030541;28;20578;-80
2023/03/18 11:40:24;;;;;;;5.35;3.25;;;17.60;99.90;;;;;;5026862;28;20204;-81
2023/03/18 11:42:56;;;;;;;5.20;3.88;;;17.80;99.90;;;;;;5027755;28;20220;-80
2023/03/18 11:45:36;;;;;;;6.03;3.20;;;18.20;99.90;;;;;;5026060;28;20189;-83
2023/03/18 11:48:03;;;;;;;4.40;3.05;;;18.20;99.90;;;;;;5006315;28;20201;-80
2023/03/18 11:50:38;;;;;;;5.35;3.65;;;18.10;99.90;;;;;;5006239;28;20597;-80
2023/03/18 11:53:10;;;;;;;5.22;3.25;;;18.40;99.90;;;;;;5006819;28;20832;-80
2023/03/18 11:55:43;;;;;;;4.80;3.22;;;18.10;99.90;;;;;;5007406;28;20190;-80
2023/03/18 11:58:34;;;;;;;4.07;3.25;;;18.10;99.90;;;;;;5007244;28;20196;-84
2023/03/18 12:01:11;;;;;;;4.30;2.95;;;18.30;99.90;;;;;;5005765;28;20616;-80
2023/03/18 12:04:11;;;;;;;5.80;3.47;;;18.40;99.90;;;;;;5007011;28;20283;-81
2023/03/18 12:06:45;;;;;;;5.32;3.00;;;18.40;99.90;;;;;;5007893;28;20249;-79
2023/03/18 12:09:21;;;;;;;4.18;3.03;;;18.30;99.90;;;;;;5002504;28;20256;-82
2023/03/18 12:12:00;;;;;;;5.70;2.92;;;17.80;99.90;;;;;;5006814;28;20221;-79
2023/03/18 12:14:34;;;;;;;4.07;3.20;;;17.60;99.90;;;;;;5006673;28;20216;-80
2023/03/18 12:17:18;;;;;;;3.03;2.67;;;17.80;99.90;;;;;;5007719;28;20204;-81
2023/03/18 12:20:05;;;;;;;4.68;2.90;;;17.70;99.90;;;;;;5010354;28;20215;-84
2023/03/18 12:22:55;;;;;;;5.05;3.30;;;17.60;99.90;;;;;;5009122;28;20673;-81
2023/03/18 12:25:40;;;;;;;4.53;2.95;;;17.60;99.90;;;;;;5008733;28;20626;-80
2023/03/18 12:28:19;;;;;;;4.00;2.55;;;17.40;99.90;;;;;;5004872;28;20273;-79
2023/03/18 12:31:00;;;;;;;3.95;2.70;;;17.30;99.90;;;;;;5005979;28;20205;-80
2023/03/18 12:33:43;;;;;;;4.85;2.80;;;17.30;99.90;;;;;;5011446;28;20688;-80
2023/03/18 12:36:18;;;;;;;3.03;2.50;;;17.30;99.90;;;;;;5027871;28;20192;-82
2023/03/18 12:39:14;;;;;;;3.03;2.20;;;17.40;99.90;;;;;;5027297;28;20195;-81
2023/03/18 12:41:52;;;;;;;3.80;3.28;;;17.60;99.90;;;;;;5027068;28;20228;-80
2023/03/18 12:44:32;;;;;;;4.60;3.22;;;17.50;99.90;;;;;;5025555;28;20259;-81
2023/03/18 12:47:05;;;;;;;3.78;3.38;;;17.30;99.90;;;;;;5026924;28;20201;-82
2023/03/18 12:49:35;;;;;;;2.88;2.40;;;17.30;99.90;;;;;;5008243;28;20216;-84
2023/03/18 12:52:06;;;;;;;2.40;2.20;;;17.30;99.90;;;;;;5007751;28;20229;-80
2023/03/18 12:54:39;;;;;;;2.28;2.08;;;17.70;99.90;;;;;;5039917;28;20184;-83
2023/03/18 12:57:14;;;;;;;4.00;2.33;;;18.40;99.90;;;;;;5043273;28;20251;-80
2023/03/18 12:59:45;;;;;;;2.92;2.28;;;18.30;99.90;;;;;;5044961;28;20251;-80
2023/03/18 13:02:30;;;;;;;3.72;2.30;;;17.90;99.90;;;;;;5031680;28;20227;-81